Time;durP1;ratioP1;P1;durP2;ratioP2;P2;SDS_P1;SDS_P2;PMS_P1;PMS_P2;Temp;Humidity;BMP_temperature;BMP_pressure;BME280_temperature;BME280_humidity;BME280_pressure;Samples;Min_cycle;Max_cycle;Signal;HPM_P1;HPM_P2
2021/08/08 00:00:11;;;;;;;;;;;15.70;99.90;;;;;;5051713;28;19911;-53
2021/08/08 00:02:37;;;;;;;;;;;15.60;99.90;;;;;;5051754;28;19908;-52
2021/08/08 00:05:12;;;;;;;;;;;15.60;99.90;;;;;;5051684;28;19904;-53
2021/08/08 00:07:38;;;;;;;;;;;15.60;99.90;;;;;;5051080;28;20012;-53
2021/08/08 00:10:07;;;;;;;;;;;15.60;99.90;;;;;;5051226;28;20372;-53
2021/08/08 00:12:33;;;;;;;;;;;15.60;99.90;;;;;;5051585;28;19966;-52
2021/08/08 00:14:58;;;;;;;;;;;15.50;99.90;;;;;;5051607;28;19912;-52
2021/08/08 00:17:24;;;;;;;;;;;15.60;99.90;;;;;;5051407;28;20304;-53
2021/08/08 00:19:49;;;;;;;;;;;15.50;99.90;;;;;;5051395;28;19905;-52
2021/08/08 00:22:15;;;;;;;;;;;15.60;99.90;;;;;;5051399;28;19966;-52
2021/08/08 00:24:40;;;;;;;;;;;15.60;99.90;;;;;;5051525;28;20403;-53
2021/08/08 00:27:06;;;;;;;;;;;15.60;99.90;;;;;;5051271;28;20344;-52
2021/08/08 00:29:31;;;;;;;;;;;15.60;99.90;;;;;;5051588;28;19912;-53
2021/08/08 00:31:57;;;;;;;;;;;15.50;99.90;;;;;;5051275;28;19905;-52
2021/08/08 00:34:22;;;;;;;;;;;15.50;99.90;;;;;;5051339;28;19909;-52
2021/08/08 00:36:48;;;;;;;;;;;15.50;99.90;;;;;;5051755;28;19905;-52
2021/08/08 00:39:15;;;;;;;;;;;15.40;99.90;;;;;;5051331;28;19905;-52
2021/08/08 00:41:40;;;;;;;;;;;15.40;99.90;;;;;;5051100;28;19912;-52
2021/08/08 00:44:06;;;;;;;;;;;15.40;99.90;;;;;;5051366;28;19905;-52
2021/08/08 00:46:31;;;;;;;;;;;15.40;99.90;;;;;;5051173;28;19904;-52
2021/08/08 00:48:57;;;;;;;;;;;15.40;99.90;;;;;;5051109;28;19909;-52
2021/08/08 00:51:23;;;;;;;;;;;15.40;99.90;;;;;;5050999;28;20329;-52
2021/08/08 00:53:49;;;;;;;;;;;15.40;99.90;;;;;;5051575;28;19956;-51
2021/08/08 00:56:15;;;;;;;;;;;15.40;99.90;;;;;;5051094;28;19944;-53
2021/08/08 00:58:40;;;;;;;;;;;15.40;99.90;;;;;;5051125;28;19958;-52
2021/08/08 01:01:06;;;;;;;;;;;15.40;99.90;;;;;;5051133;28;19909;-53
2021/08/08 01:03:33;;;;;;;;;;;15.30;99.90;;;;;;5049891;28;19908;-53
2021/08/08 01:06:09;;;;;;;;;;;15.30;99.90;;;;;;5051199;28;19908;-52
2021/08/08 01:08:40;;;;;;;;;;;15.30;99.90;;;;;;5050973;28;19904;-52
2021/08/08 01:11:06;;;;;;;;;;;15.30;99.90;;;;;;5051101;28;19904;-52
2021/08/08 01:13:32;;;;;;;;;;;15.30;99.90;;;;;;5050999;28;19905;-52
2021/08/08 01:15:58;;;;;;;;;;;15.20;99.90;;;;;;5051034;28;20003;-52
2021/08/08 01:18:24;;;;;;;;;;;15.20;99.90;;;;;;5050995;28;19995;-52
2021/08/08 01:20:50;;;;;;;;;;;15.30;99.90;;;;;;5053886;28;19905;-52
2021/08/08 01:23:17;;;;;;;;;;;15.30;99.90;;;;;;5054613;28;19905;-52
2021/08/08 01:25:43;;;;;;;;;;;15.30;99.90;;;;;;5054716;28;19904;-52
2021/08/08 01:28:09;;;;;;;;;;;15.30;99.90;;;;;;5054620;28;19950;-52
2021/08/08 01:30:35;;;;;;;;;;;15.30;99.90;;;;;;5054414;28;19905;-52
2021/08/08 01:33:02;;;;;;;;;;;15.40;99.90;;;;;;5054399;28;20483;-52
2021/08/08 01:35:27;;;;;;;;;;;15.40;99.90;;;;;;5054548;28;20281;-52
2021/08/08 01:37:53;;;;;;;;;;;15.40;99.90;;;;;;5054380;28;19905;-52
2021/08/08 01:40:39;;;;;;;;;;;15.40;99.90;;;;;;5052938;28;19911;-52
2021/08/08 01:43:06;;;;;;;;;;;15.30;99.90;;;;;;5054315;28;20321;-52
2021/08/08 01:45:33;;;;;;;;;;;15.40;99.90;;;;;;5054507;28;20472;-53
2021/08/08 01:47:59;;;;;;;;;;;15.30;99.90;;;;;;5054176;28;20383;-52
2021/08/08 01:50:30;;;;;;;;;;;15.30;99.90;;;;;;5054095;28;19905;-52
2021/08/08 01:52:57;;;;;;;;;;;15.30;99.90;;;;;;5053905;28;19920;-53
2021/08/08 01:55:22;;;;;;;;;;;15.30;99.90;;;;;;5054089;28;19970;-52
2021/08/08 01:57:48;;;;;;;;;;;15.30;99.90;;;;;;5052892;28;19912;-52
2021/08/08 02:00:13;;;;;;;;;;;15.20;99.90;;;;;;5054110;28;19909;-52
2021/08/08 02:02:57;;;;;;;;;;;15.20;99.90;;;;;;5054102;28;20312;-52
2021/08/08 02:05:25;;;;;;;;;;;15.10;99.90;;;;;;5053930;28;19913;-52
2021/08/08 02:07:51;;;;;;;;;;;15.20;99.90;;;;;;5053803;28;19947;-52
2021/08/08 02:10:17;;;;;;;;;;;15.20;99.90;;;;;;5053864;28;19904;-52
2021/08/08 02:12:42;;;;;;;;;;;15.10;99.90;;;;;;5053992;28;19970;-52
2021/08/08 02:15:09;;;;;;;;;;;15.10;99.90;;;;;;5053685;28;20280;-52
2021/08/08 02:17:38;;;;;;;;;;;15.10;99.90;;;;;;5053779;28;20337;-52
2021/08/08 02:20:05;;;;;;;;;;;15.00;99.90;;;;;;5053784;28;19909;-52
2021/08/08 02:22:31;;;;;;;;;;;15.00;99.90;;;;;;5053465;28;19905;-53
2021/08/08 02:24:57;;;;;;;;;;;15.00;99.90;;;;;;5053556;28;19983;-52
2021/08/08 02:27:22;;;;;;;;;;;15.00;99.90;;;;;;5053638;28;19966;-53
2021/08/08 02:29:48;;;;;;;;;;;15.00;99.90;;;;;;5053341;28;19904;-52
2021/08/08 02:32:15;;;;;;;;;;;14.90;99.90;;;;;;5052559;28;19954;-52
2021/08/08 02:34:41;;;;;;;;;;;15.00;99.90;;;;;;5051925;28;20323;-52
2021/08/08 02:37:06;;;;;;;;;;;14.90;99.90;;;;;;5053620;28;20376;-52
2021/08/08 02:39:32;;;;;;;;;;;14.90;99.90;;;;;;5053411;28;19964;-52
2021/08/08 02:41:57;;;;;;;;;;;15.00;99.90;;;;;;5053519;28;20282;-52
2021/08/08 02:44:23;;;;;;;;;;;15.00;99.90;;;;;;5054337;28;19931;-52
2021/08/08 02:46:48;;;;;;;;;;;15.00;99.90;;;;;;5053634;28;19913;-52
2021/08/08 02:49:14;;;;;;;;;;;15.00;99.90;;;;;;5053286;28;19982;-53
2021/08/08 02:51:39;;;;;;;;;;;15.10;99.90;;;;;;5052975;28;19928;-52
2021/08/08 02:54:05;;;;;;;;;;;15.00;99.90;;;;;;5052934;28;20258;-52
2021/08/08 02:56:30;;;;;;;;;;;15.00;99.90;;;;;;5053122;28;19913;-52
2021/08/08 02:58:56;;;;;;;;;;;15.00;99.90;;;;;;5053045;28;20318;-52
2021/08/08 03:01:21;;;;;;;;;;;15.00;99.90;;;;;;5052796;28;19919;-52
2021/08/08 03:03:47;;;;;;;;;;;15.00;99.90;;;;;;5053020;28;19963;-52
2021/08/08 03:06:13;;;;;;;;;;;15.00;99.90;;;;;;5052713;28;19930;-52
2021/08/08 03:08:44;;;;;;;;;;;15.00;99.90;;;;;;5052892;28;19951;-52
2021/08/08 03:11:10;;;;;;;;;;;15.10;99.90;;;;;;5052927;28;19995;-53
2021/08/08 03:13:36;;;;;;;;;;;15.10;99.90;;;;;;5052648;28;19995;-52
2021/08/08 03:16:02;;;;;;;;;;;15.10;99.90;;;;;;5052691;28;20344;-52
2021/08/08 03:18:27;;;;;;;;;;;15.10;99.90;;;;;;5052444;28;19904;-51
2021/08/08 03:20:53;;;;;;;;;;;15.10;99.90;;;;;;5052829;28;19983;-52
2021/08/08 03:23:18;;;;;;;;;;;15.10;99.90;;;;;;5052325;28;19904;-51
2021/08/08 03:25:44;;;;;;;;;;;15.10;99.90;;;;;;5052653;28;19908;-52
2021/08/08 03:28:10;;;;;;;;;;;15.10;99.90;;;;;;5052301;28;19905;-52
2021/08/08 03:30:36;;;;;;;;;;;15.10;99.90;;;;;;5051010;28;19905;-52
2021/08/08 03:33:01;;;;;;;;;;;15.10;99.90;;;;;;5052167;28;19919;-52
2021/08/08 03:35:27;;;;;;;;;;;15.10;99.90;;;;;;5052129;28;19908;-53
2021/08/08 03:37:53;;;;;;;;;;;15.20;99.90;;;;;;5052033;28;19904;-52
2021/08/08 03:40:18;;;;;;;;;;;15.20;99.90;;;;;;5052515;28;19956;-52
2021/08/08 03:42:44;;;;;;;;;;;15.20;99.90;;;;;;5051913;28;20272;-52
2021/08/08 03:45:09;;;;;;;;;;;15.20;99.90;;;;;;5052055;28;19975;-52
2021/08/08 03:47:35;;;;;;;;;;;15.20;99.90;;;;;;5051897;28;19905;-52
2021/08/08 03:50:00;;;;;;;;;;;15.20;99.90;;;;;;5051956;28;20015;-51
2021/08/08 03:52:26;;;;;;;;;;;15.20;99.90;;;;;;5051650;28;20357;-52
2021/08/08 03:54:51;;;;;;;;;;;15.10;99.90;;;;;;5051969;28;20384;-52
2021/08/08 03:57:17;;;;;;;;;;;15.10;99.90;;;;;;5051940;28;19959;-52
2021/08/08 03:59:42;;;;;;;;;;;15.10;99.90;;;;;;5050465;28;20372;-52
2021/08/08 04:02:08;;;;;;;;;;;15.10;99.90;;;;;;5051777;28;19904;-51
2021/08/08 04:04:33;;;;;;;;;;;15.10;99.90;;;;;;5051770;28;19948;-52
2021/08/08 04:06:59;;;;;;;;;;;15.00;99.90;;;;;;5051804;28;19908;-52
2021/08/08 04:09:24;;;;;;;;;;;15.00;99.90;;;;;;5051720;28;19931;-52
2021/08/08 04:11:50;;;;;;;;;;;15.10;99.90;;;;;;5051687;28;19940;-52
2021/08/08 04:14:15;;;;;;;;;;;15.00;99.90;;;;;;5050445;28;19934;-52
2021/08/08 04:16:41;;;;;;;;;;;15.00;99.90;;;;;;5051537;28;19916;-51
2021/08/08 04:19:06;;;;;;;;;;;15.00;99.90;;;;;;5051629;28;19905;-52
2021/08/08 04:21:32;;;;;;;;;;;15.10;99.90;;;;;;5050290;28;19904;-53
2021/08/08 04:23:57;;;;;;;;;;;15.00;99.90;;;;;;5051662;28;20301;-52
2021/08/08 04:26:23;;;;;;;;;;;15.00;99.90;;;;;;5050081;28;19950;-52
2021/08/08 04:28:48;;;;;;;;;;;15.00;99.90;;;;;;5051294;28;20416;-52
2021/08/08 04:31:14;;;;;;;;;;;14.90;99.90;;;;;;5051319;28;20057;-52
2021/08/08 04:33:39;;;;;;;;;;;14.90;99.90;;;;;;5051258;28;19971;-52
2021/08/08 04:36:05;;;;;;;;;;;14.80;99.90;;;;;;5051585;28;20341;-51
2021/08/08 04:38:31;;;;;;;;;;;14.80;99.90;;;;;;5051357;28;19931;-52
2021/08/08 04:40:57;;;;;;;;;;;14.70;99.90;;;;;;5050063;28;20350;-55
2021/08/08 04:43:22;;;;;;;;;;;14.60;99.90;;;;;;5051315;28;19905;-52
2021/08/08 04:45:48;;;;;;;;;;;14.60;99.90;;;;;;5051383;28;19908;-52
2021/08/08 04:48:13;;;;;;;;;;;14.50;99.90;;;;;;5051099;28;19916;-52
2021/08/08 04:50:39;;;;;;;;;;;14.50;99.90;;;;;;5051327;28;19912;-52
2021/08/08 04:53:04;;;;;;;;;;;14.50;99.90;;;;;;5051142;28;20357;-51
2021/08/08 04:55:30;;;;;;;;;;;14.40;99.90;;;;;;5053888;28;19997;-52
2021/08/08 04:57:55;;;;;;;;;;;14.40;99.90;;;;;;5055109;28;19948;-52
2021/08/08 05:00:21;;;;;;;;;;;14.40;99.90;;;;;;5055107;28;19916;-52
2021/08/08 05:02:47;;;;;;;;;;;14.40;99.90;;;;;;5055066;28;20390;-52
2021/08/08 05:05:13;;;;;;;;;;;14.30;99.90;;;;;;5055125;28;20269;-52
2021/08/08 05:07:39;;;;;;;;;;;14.30;99.90;;;;;;5055131;28;20364;-52
2021/08/08 05:10:09;;;;;;;;;;;14.30;99.90;;;;;;5054915;28;19909;-52
2021/08/08 05:12:35;;;;;;;;;;;14.20;99.90;;;;;;5054917;28;19908;-51
2021/08/08 05:15:00;;;;;;;;;;;14.20;99.90;;;;;;5053576;28;19909;-52
2021/08/08 05:17:26;;;;;;;;;;;14.20;99.90;;;;;;5054769;28;19946;-52
2021/08/08 05:19:51;;;;;;;;;;;14.20;99.90;;;;;;5054750;28;19912;-52
2021/08/08 05:22:17;;;;;;;;;;;14.20;99.90;;;;;;5054651;28;19905;-52
2021/08/08 05:24:42;;;;;;;;;;;14.30;99.90;;;;;;5054756;28;19916;-52
2021/08/08 05:27:08;;;;;;;;;;;14.20;99.90;;;;;;5053258;28;19909;-51
2021/08/08 05:29:33;;;;;;;;;;;14.30;99.90;;;;;;5054441;28;19947;-52
2021/08/08 05:31:59;;;;;;;;;;;14.30;99.90;;;;;;5053622;28;20234;-52
2021/08/08 05:34:24;;;;;;;;;;;14.30;99.90;;;;;;5054364;28;19962;-52
2021/08/08 05:36:50;;;;;;;;;;;14.30;99.90;;;;;;5054413;28;19916;-51
2021/08/08 05:39:15;;;;;;;;;;;14.30;99.90;;;;;;5054655;28;19947;-52
2021/08/08 05:41:41;;;;;;;;;;;14.40;99.90;;;;;;5054485;28;19912;-52
2021/08/08 05:44:07;;;;;;;;;;;14.50;99.90;;;;;;5054662;28;19912;-52
2021/08/08 05:46:35;;;;;;;;;;;14.50;99.90;;;;;;5054273;28;19909;-52
2021/08/08 05:49:01;;;;;;;;;;;14.50;99.90;;;;;;5054123;28;19905;-52
2021/08/08 05:51:26;;;;;;;;;;;14.50;99.90;;;;;;5054067;28;20289;-52
2021/08/08 05:53:52;;;;;;;;;;;14.60;99.90;;;;;;5054270;28;19912;-52
2021/08/08 05:56:17;;;;;;;;;;;14.50;99.90;;;;;;5054119;28;19905;-52
2021/08/08 05:58:43;;;;;;;;;;;14.60;99.90;;;;;;5054347;28;19905;-52
2021/08/08 06:01:08;;;;;;;;;;;14.60;99.90;;;;;;5053969;28;19912;-52
2021/08/08 06:03:34;;;;;;;;;;;14.50;99.90;;;;;;5054182;28;20011;-52
2021/08/08 06:05:59;;;;;;;;;;;14.50;99.90;;;;;;5052603;28;19911;-52
2021/08/08 06:08:25;;;;;;;;;;;14.60;99.90;;;;;;5052447;28;19911;-52
2021/08/08 06:10:50;;;;;;;;;;;14.60;99.90;;;;;;5053869;28;19905;-51
2021/08/08 06:13:16;;;;;;;;;;;14.70;99.90;;;;;;5053670;28;20405;-51
2021/08/08 06:15:41;;;;;;;;;;;14.70;99.90;;;;;;5053641;28;20326;-52
2021/08/08 06:18:07;;;;;;;;;;;14.70;99.90;;;;;;5053740;28;19999;-52
2021/08/08 06:20:32;;;;;;;;;;;14.70;99.90;;;;;;5052262;28;19982;-52
2021/08/08 06:22:58;;;;;;;;;;;14.70;99.90;;;;;;5053550;28;19904;-52
2021/08/08 06:25:23;;;;;;;;;;;14.70;99.90;;;;;;5053973;28;20373;-53
2021/08/08 06:27:49;;;;;;;;;;;14.80;99.90;;;;;;5053471;28;19999;-52
2021/08/08 06:30:14;;;;;;;;;;;14.90;99.90;;;;;;5053497;28;19905;-52
2021/08/08 06:32:40;;;;;;;;;;;15.10;99.90;;;;;;5053323;28;19904;-52
2021/08/08 06:35:06;;;;;;;;;;;15.10;99.90;;;;;;5053380;28;19952;-52
2021/08/08 06:37:32;;;;;;;;;;;15.10;99.90;;;;;;5053324;28;20385;-52
2021/08/08 06:39:58;;;;;;;;;;;15.20;99.90;;;;;;5053380;28;20364;-52
2021/08/08 06:42:24;;;;;;;;;;;15.20;99.90;;;;;;5053118;28;19915;-52
2021/08/08 06:44:49;;;;;;;;;;;15.30;99.90;;;;;;5053341;28;19904;-52
2021/08/08 06:47:15;;;;;;;;;;;15.20;99.90;;;;;;5053101;28;19970;-52
2021/08/08 06:49:40;;;;;;;;;;;15.10;99.90;;;;;;5052933;28;19905;-52
2021/08/08 06:52:06;;;;;;;;;;;15.10;99.90;;;;;;5052833;28;19917;-52
2021/08/08 06:54:31;;;;;;;;;;;15.10;99.90;;;;;;5053041;28;19924;-52
2021/08/08 06:56:56;;;;;;;;;;;15.10;99.90;;;;;;5052926;28;20270;-52
2021/08/08 06:59:22;;;;;;;;;;;15.20;99.90;;;;;;5052761;28;19905;-52
2021/08/08 07:01:48;;;;;;;;;;;15.20;99.90;;;;;;5052835;28;20375;-52
2021/08/08 07:04:13;;;;;;;;;;;15.30;99.90;;;;;;5053235;28;19908;-52
2021/08/08 07:06:39;;;;;;;;;;;15.20;99.90;;;;;;5052980;28;19905;-52
2021/08/08 07:09:07;;;;;;;;;;;15.20;99.90;;;;;;5053104;28;19912;-52
2021/08/08 07:11:34;;;;;;;;;;;15.20;99.90;;;;;;5052718;28;19904;-52
2021/08/08 07:14:00;;;;;;;;;;;15.20;99.90;;;;;;5053200;28;19908;-52
2021/08/08 07:16:25;;;;;;;;;;;15.60;99.90;;;;;;5052779;28;19905;-52
2021/08/08 07:18:51;;;;;;;;;;;15.90;99.90;;;;;;5052012;28;19909;-52
2021/08/08 07:21:16;;;;;;;;;;;16.40;99.90;;;;;;5051385;28;19904;-53
2021/08/08 07:23:42;;;;;;;;;;;17.10;99.90;;;;;;5053010;28;19905;-52
2021/08/08 07:26:07;;;;;;;;;;;17.30;99.90;;;;;;5052419;28;19904;-52
2021/08/08 07:28:33;;;;;;;;;;;17.10;99.90;;;;;;5050987;28;19911;-52
2021/08/08 07:30:58;;;;;;;;;;;16.80;99.90;;;;;;5052220;28;19934;-53
2021/08/08 07:33:24;;;;;;;;;;;16.50;99.90;;;;;;5052126;28;19990;-52
2021/08/08 07:35:51;;;;;;;;;;;16.60;99.90;;;;;;5052320;28;20313;-52
2021/08/08 07:38:16;;;;;;;;;;;16.70;99.90;;;;;;5052289;28;20392;-53
2021/08/08 07:40:42;;;;;;;;;;;17.20;99.90;;;;;;5052507;28;20010;-53
2021/08/08 07:43:07;;;;;;;;;;;17.70;99.90;;;;;;5052245;28;19912;-53
2021/08/08 07:45:33;;;;;;;;;;;17.70;99.90;;;;;;5050925;28;19909;-53
2021/08/08 07:47:58;;;;;;;;;;;17.80;99.90;;;;;;5051910;28;19912;-53
2021/08/08 07:50:24;;;;;;;;;;;17.50;99.90;;;;;;5051876;28;19924;-52
2021/08/08 07:52:49;;;;;;;;;;;16.90;99.90;;;;;;5051895;28;19927;-53
2021/08/08 07:55:15;;;;;;;;;;;16.80;99.90;;;;;;5052038;28;19912;-52
2021/08/08 07:57:41;;;;;;;;;;;16.80;99.90;;;;;;5052018;28;19932;-52
2021/08/08 08:00:08;;;;;;;;;;;16.70;99.90;;;;;;5052058;28;19909;-53
2021/08/08 08:02:33;;;;;;;;;;;16.80;99.90;;;;;;5050545;28;20373;-52
2021/08/08 08:04:59;;;;;;;;;;;16.70;99.90;;;;;;5052226;28;19909;-51
2021/08/08 08:07:24;;;;;;;;;;;17.10;99.90;;;;;;5051815;28;19959;-53
2021/08/08 08:09:50;;;;;;;;;;;16.80;99.90;;;;;;5051756;28;20412;-52
2021/08/08 08:12:15;;;;;;;;;;;16.80;99.90;;;;;;5051758;28;20270;-53
2021/08/08 08:14:41;;;;;;;;;;;17.20;99.90;;;;;;5051561;28;19964;-53
2021/08/08 08:17:06;;;;;;;;;;;17.50;99.90;;;;;;5051576;28;19987;-52
2021/08/08 08:19:32;;;;;;;;;;;17.50;99.90;;;;;;5051496;28;19908;-53
2021/08/08 08:21:57;;;;;;;;;;;17.40;99.90;;;;;;5050132;28;20361;-53
2021/08/08 08:24:23;;;;;;;;;;;17.40;99.90;;;;;;5050185;28;19939;-53
2021/08/08 08:26:48;;;;;;;;;;;18.00;99.90;;;;;;5051318;28;19912;-53
2021/08/08 08:29:14;;;;;;;;;;;18.30;99.90;;;;;;5049404;28;20319;-52
2021/08/08 08:31:39;;;;;;;;;;;17.80;99.90;;;;;;5051496;28;19909;-53
2021/08/08 08:34:05;;;;;;;;;;;17.30;99.90;;;;;;5051164;28;19913;-53
2021/08/08 08:36:30;;;;;;;;;;;17.40;99.90;;;;;;5051456;28;19992;-53
2021/08/08 08:38:56;;;;;;;;;;;17.80;99.90;;;;;;5051427;28;19958;-52
2021/08/08 08:41:27;;;;;;;;;;;18.10;99.90;;;;;;5051303;28;19909;-53
2021/08/08 08:43:54;;;;;;;;;;;18.00;99.90;;;;;;5051414;28;20322;-53
2021/08/08 08:46:20;;;;;;;;;;;17.90;99.90;;;;;;5051378;28;19905;-53
2021/08/08 08:48:46;;;;;;;;;;;17.60;99.90;;;;;;5051318;28;19994;-53
2021/08/08 08:51:13;;;;;;;;;;;17.60;99.90;;;;;;5051021;28;19916;-53
2021/08/08 08:53:40;;;;;;;;;;;17.70;99.90;;;;;;5051307;28;19909;-53
2021/08/08 08:56:06;;;;;;;;;;;17.90;99.90;;;;;;5051571;28;20316;-53
2021/08/08 08:58:32;;;;;;;;;;;17.90;99.90;;;;;;5050963;28;19909;-52
2021/08/08 09:00:57;;;;;;;;;;;17.80;99.90;;;;;;5050974;28;19905;-53
2021/08/08 09:03:23;;;;;;;;;;;18.00;99.90;;;;;;5051167;28;20384;-53
2021/08/08 09:05:48;;;;;;;;;;;18.20;99.90;;;;;;5051232;28;19905;-53
2021/08/08 09:08:14;;;;;;;;;;;18.10;99.90;;;;;;5051108;28;19912;-53
2021/08/08 09:10:40;;;;;;;;;;;18.00;99.90;;;;;;5051120;28;19905;-53
2021/08/08 09:13:06;;;;;;;;;;;18.00;99.90;;;;;;5051069;28;19904;-52
2021/08/08 09:15:36;;;;;;;;;;;18.00;99.90;;;;;;5051117;28;19924;-52
2021/08/08 09:18:11;;;;;;;;;;;18.00;99.90;;;;;;5050791;28;19999;-52
2021/08/08 09:20:37;;;;;;;;;;;18.10;99.90;;;;;;5050795;28;19952;-53
2021/08/08 09:23:03;;;;;;;;;;;18.10;99.90;;;;;;5051166;28;19974;-54
2021/08/08 09:25:28;;;;;;;;;;;18.40;99.90;;;;;;5051079;28;20055;-53
2021/08/08 09:28:04;;;;;;;;;;;18.90;99.90;;;;;;5050839;28;19908;-54
2021/08/08 09:30:34;;;;;;;;;;;19.00;99.90;;;;;;5050868;28;19908;-53
2021/08/08 09:33:01;;;;;;;;;;;18.70;99.90;;;;;;5049445;28;19904;-53
2021/08/08 09:35:31;;;;;;;;;;;18.10;99.90;;;;;;5051218;28;19908;-53
2021/08/08 09:37:58;;;;;;;;;;;17.90;99.90;;;;;;5050907;28;20208;-53
2021/08/08 09:40:24;;;;;;;;;;;18.00;99.90;;;;;;5050245;28;19960;-53
2021/08/08 09:42:50;;;;;;;;;;;18.20;99.90;;;;;;5054343;28;19905;-53
2021/08/08 09:45:17;;;;;;;;;;;18.00;99.90;;;;;;5054639;28;19995;-53
2021/08/08 09:47:50;;;;;;;;;;;18.30;99.90;;;;;;5054275;28;19905;-53
2021/08/08 09:50:20;;;;;;;;;;;18.60;99.90;;;;;;5054134;28;19905;-53
2021/08/08 09:52:52;;;;;;;;;;;19.40;99.90;;;;;;5053851;28;19916;-54
2021/08/08 09:55:24;;;;;;;;;;;19.80;99.90;;;;;;5053912;28;20338;-53
2021/08/08 09:57:50;;;;;;;;;;;19.80;99.90;;;;;;5054125;28;19908;-54
2021/08/08 10:00:39;;;;;;;;;;;19.30;99.90;;;;;;5054058;28;20333;-52
2021/08/08 10:03:17;;;;;;;;;;;18.80;99.90;;;;;;5052527;28;19905;-52
2021/08/08 10:05:45;;;;;;;;;;;17.90;99.90;;;;;;5054094;28;19915;-52
2021/08/08 10:08:11;;;;;;;;;;;17.20;99.90;;;;;;5053935;28;19904;-58
2021/08/08 10:10:38;;;;;;;;;;;17.60;99.90;;;;;;5054082;28;19905;-60
2021/08/08 10:13:24;;;;;;;;;;;18.90;99.90;;;;;;5052430;28;19935;-59
2021/08/08 10:15:50;;;;;;;;;;;19.40;99.90;;;;;;5052403;28;19912;-58
2021/08/08 10:18:16;;;;;;;;;;;19.40;99.90;;;;;;5053721;28;20416;-57
2021/08/08 10:20:42;;;;;;;;;;;19.60;99.90;;;;;;5052232;28;19909;-56
2021/08/08 10:23:13;;;;;;;;;;;18.90;99.90;;;;;;5053753;28;19950;-56
2021/08/08 10:25:39;;;;;;;;;;;18.80;99.90;;;;;;5053661;28;19909;-56
2021/08/08 10:28:06;;;;;;;;;;;18.90;99.90;;;;;;5053535;28;19995;-57
2021/08/08 10:30:32;;;;;;;;;;;19.50;99.90;;;;;;5053212;28;19919;-58
2021/08/08 10:33:00;;;;;;;;;;;19.70;99.90;;;;;;5053455;28;19904;-55
2021/08/08 10:35:34;;;;;;;;;;;19.10;99.90;;;;;;5053581;28;19916;-57
2021/08/08 10:38:00;;;;;;;;;;;19.30;99.90;;;;;;5053504;28;19905;-56
2021/08/08 10:40:27;;;;;;;;;;;20.10;99.90;;;;;;5053282;28;20035;-56
2021/08/08 10:42:52;;;;;;;;;;;20.80;99.90;;;;;;5053491;28;19909;-55
2021/08/08 10:45:25;;;;;;;;;;;20.30;99.90;;;;;;5053339;28;19938;-55
2021/08/08 10:47:54;;;;;;;;;;;20.10;99.90;;;;;;5053097;28;20383;-55
2021/08/08 10:50:20;;;;;;;;;;;19.20;99.90;;;;;;5053328;28;19909;-54
2021/08/08 10:52:45;;;;;;;;;;;19.80;99.90;;;;;;5052314;28;20011;-54
2021/08/08 10:55:22;;;;;;;;;;;20.30;99.90;;;;;;5051708;28;20006;-55
2021/08/08 10:57:48;;;;;;;;;;;21.00;99.90;;;;;;5053801;28;19905;-56
2021/08/08 11:00:15;;;;;;;;;;;20.90;99.90;;;;;;5052807;28;19915;-55
2021/08/08 11:02:44;;;;;;;;;;;21.00;99.90;;;;;;5053014;28;19904;-55
2021/08/08 11:05:14;;;;;;;;;;;21.50;99.90;;;;;;5053036;28;19912;-54
2021/08/08 11:07:41;;;;;;;;;;;21.70;99.90;;;;;;5052737;28;19905;-55
2021/08/08 11:10:07;;;;;;;;;;;22.00;99.90;;;;;;5051575;28;19905;-55
2021/08/08 11:12:34;;;;;;;;;;;21.80;99.90;;;;;;5051597;28;19912;-54
2021/08/08 11:14:59;;;;;;;;;;;21.10;99.90;;;;;;5053236;28;19958;-54
2021/08/08 11:17:25;;;;;;;;;;;20.80;99.90;;;;;;5052634;28;19908;-54
2021/08/08 11:19:51;;;;;;;;;;;21.20;99.90;;;;;;5052621;28;19909;-55
2021/08/08 11:22:18;;;;;;;;;;;21.60;99.90;;;;;;5052528;28;20342;-55
2021/08/08 11:24:44;;;;;;;;;;;22.10;99.90;;;;;;5053040;28;19909;-55
2021/08/08 11:27:10;;;;;;;;;;;22.10;99.90;;;;;;5052542;28;19912;-55
2021/08/08 11:29:36;;;;;;;;;;;21.90;99.90;;;;;;5052345;28;19920;-55
2021/08/08 11:32:04;;;;;;;;;;;21.70;99.90;;;;;;5052499;28;19908;-54
2021/08/08 11:34:30;;;;;;;;;;;22.50;99.90;;;;;;5052559;28;20284;-55
2021/08/08 11:36:56;;;;;;;;;;;22.00;99.90;;;;;;5052578;28;19905;-54
2021/08/08 11:39:22;;;;;;;;;;;21.20;99.90;;;;;;5052300;28;19908;-54
2021/08/08 11:41:48;;;;;;;;;;;20.10;99.90;;;;;;5052159;28;19912;-54
2021/08/08 11:44:15;;;;;;;;;;;19.50;99.90;;;;;;5052480;28;20343;-54
2021/08/08 11:46:48;;;;;;;;;;;20.00;99.90;;;;;;5052403;28;19989;-54
2021/08/08 11:49:18;;;;;;;;;;;20.70;99.90;;;;;;5052637;28;20466;-54
2021/08/08 11:51:53;;;;;;;;;;;21.10;99.90;;;;;;5052355;28;19922;-54
2021/08/08 11:54:22;;;;;;;;;;;21.80;99.90;;;;;;5052905;28;20399;-54
2021/08/08 11:56:48;;;;;;;;;;;21.60;99.90;;;;;;5052349;28;19911;-54
2021/08/08 11:59:23;;;;;;;;;;;21.10;99.90;;;;;;5052268;28;19908;-54
2021/08/08 12:01:55;;;;;;;;;;;20.30;99.90;;;;;;5052149;28;20320;-54
2021/08/08 12:04:22;;;;;;;;;;;19.50;99.90;;;;;;5052085;28;20304;-54
2021/08/08 12:06:47;;;;;;;;;;;18.90;99.90;;;;;;5051775;28;20373;-53
2021/08/08 12:09:13;;;;;;;;;;;17.90;99.90;;;;;;5051858;28;19908;-58
2021/08/08 12:11:47;;;;;;;;;;;17.40;99.90;;;;;;5050355;28;19905;-58
2021/08/08 12:14:12;;;;;;;;;;;17.10;99.90;;;;;;5050588;28;19978;-55
2021/08/08 12:16:38;;;;;;;;;;;17.20;99.90;;;;;;5051866;28;20349;-55
2021/08/08 12:19:04;;;;;;;;;;;17.90;99.90;;;;;;5051666;28;19909;-56
2021/08/08 12:21:34;;;;;;;;;;;18.70;99.90;;;;;;5051915;28;19932;-56
2021/08/08 12:24:07;;;;;;;;;;;19.30;99.90;;;;;;5051785;28;19950;-56
2021/08/08 12:26:33;;;;;;;;;;;19.50;99.90;;;;;;5052020;28;20003;-56
2021/08/08 12:29:03;;;;;;;;;;;21.00;99.90;;;;;;5052415;28;19955;-56
2021/08/08 12:31:35;;;;;;;;;;;22.10;99.90;;;;;;5052482;28;19916;-55
2021/08/08 12:34:01;;;;;;;;;;;23.00;99.90;;;;;;5052320;28;19904;-57
2021/08/08 12:36:34;;;;;;;;;;;23.20;99.90;;;;;;5051858;28;19905;-54
2021/08/08 12:38:59;;;;;;;;;;;22.70;99.90;;;;;;5051773;28;19905;-56
2021/08/08 12:41:26;;;;;;;;;;;22.10;99.90;;;;;;5052104;28;20372;-53
2021/08/08 12:43:56;;;;;;;;;;;21.70;99.90;;;;;;5052027;28;20025;-53
2021/08/08 12:46:27;;;;;;;;;;;21.20;99.90;;;;;;5051999;28;20420;-53
2021/08/08 12:48:57;;;;;;;;;;;20.40;99.90;;;;;;5051518;28;19913;-53
2021/08/08 12:51:22;;;;;;;;;;;20.10;99.90;;;;;;5051254;28;19928;-55
2021/08/08 12:53:48;;;;;;;;;;;19.70;99.90;;;;;;5051633;28;19912;-64
2021/08/08 12:56:13;;;;;;;;;;;19.00;99.90;;;;;;5051200;28;19916;-63
2021/08/08 12:58:39;;;;;;;;;;;18.40;99.90;;;;;;5051355;28;20380;-62
2021/08/08 13:01:04;;;;;;;;;;;18.00;99.90;;;;;;5049980;28;19908;-58
2021/08/08 13:03:30;;;;;;;;;;;17.20;99.90;;;;;;5051535;28;19905;-57
2021/08/08 13:05:55;;;;;;;;;;;16.60;99.90;;;;;;5051404;28;19908;-56
2021/08/08 13:08:21;;;;;;;;;;;16.30;99.90;;;;;;5051823;28;19912;-56
2021/08/08 13:10:46;;;;;;;;;;;16.00;99.90;;;;;;5051354;28;19915;-55
2021/08/08 13:13:12;;;;;;;;;;;15.50;99.90;;;;;;5052330;28;19909;-58
2021/08/08 13:15:37;;;;;;;;;;;15.10;99.90;;;;;;5053111;28;20345;-59
2021/08/08 13:18:04;;;;;;;;;;;14.90;99.90;;;;;;5056219;28;19962;-58
2021/08/08 13:20:29;;;;;;;;;;;14.70;99.90;;;;;;5055790;28;19912;-59
2021/08/08 13:22:55;;;;;;;;;;;14.60;99.90;;;;;;5056536;28;19908;-55
2021/08/08 13:25:20;;;;;;;;;;;14.60;99.90;;;;;;5056108;28;19905;-56
2021/08/08 13:27:46;;;;;;;;;;;14.70;99.90;;;;;;5055499;28;19912;-53
2021/08/08 13:30:12;;;;;;;;;;;15.10;99.90;;;;;;5053780;28;20381;-54
2021/08/08 13:32:37;;;;;;;;;;;15.70;99.90;;;;;;5054545;28;19905;-53
2021/08/08 13:35:03;;;;;;;;;;;17.10;99.90;;;;;;5054564;28;19999;-54
2021/08/08 13:37:28;;;;;;;;;;;18.40;99.90;;;;;;5054603;28;19905;-54
2021/08/08 13:39:54;;;;;;;;;;;19.00;99.90;;;;;;5055104;28;19923;-53
2021/08/08 13:42:19;;;;;;;;;;;18.30;99.90;;;;;;5054577;28;20003;-53
2021/08/08 13:44:45;;;;;;;;;;;17.60;99.90;;;;;;5054533;28;19966;-53
2021/08/08 13:47:10;;;;;;;;;;;17.20;99.90;;;;;;5054701;28;19920;-54
2021/08/08 13:49:36;;;;;;;;;;;17.10;99.90;;;;;;5054286;28;19912;-54
2021/08/08 13:52:02;;;;;;;;;;;17.20;99.90;;;;;;5054056;28;19925;-53
2021/08/08 13:54:27;;;;;;;;;;;17.60;99.90;;;;;;5054264;28;19948;-54
2021/08/08 13:56:53;;;;;;;;;;;18.80;99.90;;;;;;5054797;28;20003;-54
2021/08/08 13:59:18;;;;;;;;;;;19.50;99.90;;;;;;5054424;28;19987;-54
2021/08/08 14:01:44;;;;;;;;;;;20.00;99.90;;;;;;5054156;28;20377;-54
2021/08/08 14:04:09;;;;;;;;;;;20.60;99.90;;;;;;5054208;28;19908;-53
2021/08/08 14:06:35;;;;;;;;;;;20.70;99.90;;;;;;5053959;28;19959;-53
2021/08/08 14:09:01;;;;;;;;;;;20.80;99.90;;;;;;5054344;28;19911;-53
2021/08/08 14:11:26;;;;;;;;;;;21.20;99.90;;;;;;5054772;28;19948;-54